Loomis, CA

8:35 AM PDT on October 02, 2014 (GMT -0700)
Auburn Municipal | Change Station
CLOSE
Current Station
Airport
Location: Auburn,
Elevation: 1532 ft
Nearby Weather Stations

Elev 1532 ft 38.95 °N, 121.09 °W | Updated 20 minutes ago

Clear
Clear
66 °F
Feels Like 66 °F
N
8
Wind Variable Wind from East

Today
High -- | Low -- °F
--% Chance of Precip.
Yesterday
High -- | Low -- °F
Precip. -- in
7:01 AM 6:45 PM
First Quarter, 59% visible
Pressure 30.06 in
Visibility 10.0 miles
Clouds Clear
Dew Point 28 °F
Humidity 24%
Rainfall 0.00 in
Snow Depth 0 in , 0 in , 0 in
UV 1 out of 12
Pollen 5.40 out of 12
Ozone Good
PM2.5 Moderate
Flu Activity Not available.
METAR KAUN 021515Z AUTO 09007KT 10SM CLR 19/M02 A3006 RMK AO1

More Conditions Fewer Conditions

Pressure 30.06 in
Visibility 10.0 miles
Clouds Clear
Dew Point 28 °F
Humidity 24%
Rainfall 0.00 in
Snow Depth 0 in , 0 in , 0 in
UV 1 out of 12
Pollen 5.40 out of 12
Ozone Good
PM2.5 Moderate
Flu Activity Not available.
METAR KAUN 021515Z AUTO 09007KT 10SM CLR 19/M02 A3006 RMK AO1

More Conditions Fewer Conditions

10-Day Weather Forecast

Almanac

Astronomy

Oct. 02, 2014 Rise Set
Actual Time 7:01 AM PDT 6:45 PM PDT
Civil Twilight 6:35 AM PDT 7:12 PM PDT
Nautical Twilight 6:04 AM PDT 7:42 PM PDT
Astronomical Twilight 5:33 AM PDT 8:14 PM PDT
Moon 2:53 PM PDT 12:27 AM PDT
Length of Visible Light 12h 37m
Length of Day
11h 44m
Tomorrow will be 2m 30s shorter.
First Quarter, 59% of the Moon is Illuminated
Today
First Quarter
Oct 8
Full
Oct 15
Last Quarter
Oct 23
New
Oct 30
First Quarter

Today's Extremes

State Highs State Lows

Community

WunderPhotos

Upload Photos

1,758,276 photos uploaded!

WunderBlogs® & News

Nearby

Air Quality

  Air Quality AQ Index Pollutant
Yesterday Good
OZONE
Yesterday Good
PM2.5
Current Moderate
PM2.5
Current Good
OZONE
Thursday Moderate
OZONE
Friday Moderate
OZONE
Saturday Moderate
OZONE
Sunday Moderate
OZONE
Monday Moderate
OZONE

Snow Depth

Station Depth Elevation
Squaw Valley 0 in 8200 ft
Hagan's Meadow 0 in 8000 ft
Independence Creek 0 in 6500 ft
Burnside Lake 1 in 8139 ft
Horse Meadow 2 in 8631 ft

Earthquake Activity

City Distance Mag. Time & Date
East Foothills, California 98 miles 2.6 3:34 PM PDT
2014-09-30
Minimum magnitude displayed is 2.5.

Coastal Water Temperatures

Place Temperature
No Stations Reporting

Nearby Weather Stations